sensor_id;sensor_type;location;lat;lon;timestamp;P1;durP1;ratioP1;P2;durP2;ratioP2
80891;SDS011;70343;51.530;5.050;2024-03-08T00:01:06;28.02;;;12.30;;
80891;SDS011;70343;51.530;5.050;2024-03-08T00:03:32;29.42;;;13.43;;
80891;SDS011;70343;51.530;5.050;2024-03-08T00:05:59;30.08;;;13.65;;
80891;SDS011;70343;51.530;5.050;2024-03-08T00:08:24;26.33;;;12.50;;
80891;SDS011;70343;51.530;5.050;2024-03-08T00:10:50;28.75;;;12.90;;
80891;SDS011;70343;51.530;5.050;2024-03-08T00:13:15;32.92;;;15.68;;
80891;SDS011;70343;51.530;5.050;2024-03-08T00:15:41;23.50;;;11.05;;
80891;SDS011;70343;51.530;5.050;2024-03-08T00:18:07;25.40;;;11.80;;
80891;SDS011;70343;51.530;5.050;2024-03-08T00:20:32;28.02;;;11.07;;
80891;SDS011;70343;51.530;5.050;2024-03-08T00:22:58;28.17;;;12.80;;
80891;SDS011;70343;51.530;5.050;2024-03-08T00:25:24;31.75;;;13.93;;
80891;SDS011;70343;51.530;5.050;2024-03-08T00:27:50;21.90;;;11.13;;
80891;SDS011;70343;51.530;5.050;2024-03-08T00:30:15;29.88;;;13.57;;
80891;SDS011;70343;51.530;5.050;2024-03-08T00:32:41;26.63;;;13.38;;
80891;SDS011;70343;51.530;5.050;2024-03-08T00:35:07;33.33;;;14.20;;
80891;SDS011;70343;51.530;5.050;2024-03-08T00:37:32;29.20;;;13.95;;
80891;SDS011;70343;51.530;5.050;2024-03-08T00:39:59;27.48;;;13.50;;
80891;SDS011;70343;51.530;5.050;2024-03-08T00:42:25;31.42;;;14.30;;
80891;SDS011;70343;51.530;5.050;2024-03-08T00:44:50;24.02;;;12.40;;
80891;SDS011;70343;51.530;5.050;2024-03-08T00:47:16;28.60;;;13.35;;
80891;SDS011;70343;51.530;5.050;2024-03-08T00:49:42;31.77;;;14.32;;
80891;SDS011;70343;51.530;5.050;2024-03-08T00:52:08;26.45;;;12.23;;
80891;SDS011;70343;51.530;5.050;2024-03-08T00:54:34;29.55;;;13.02;;
80891;SDS011;70343;51.530;5.050;2024-03-08T00:57:01;21.58;;;10.82;;
80891;SDS011;70343;51.530;5.050;2024-03-08T00:59:31;28.40;;;14.15;;
80891;SDS011;70343;51.530;5.050;2024-03-08T01:01:59;29.25;;;12.68;;
80891;SDS011;70343;51.530;5.050;2024-03-08T01:04:25;26.13;;;11.65;;
80891;SDS011;70343;51.530;5.050;2024-03-08T01:06:54;25.00;;;11.70;;
80891;SDS011;70343;51.530;5.050;2024-03-08T01:09:23;21.95;;;10.65;;
80891;SDS011;70343;51.530;5.050;2024-03-08T01:11:49;24.17;;;11.20;;
80891;SDS011;70343;51.530;5.050;2024-03-08T01:14:15;26.73;;;12.40;;
80891;SDS011;70343;51.530;5.050;2024-03-08T01:16:41;27.13;;;13.70;;
80891;SDS011;70343;51.530;5.050;2024-03-08T01:19:07;28.92;;;14.05;;
80891;SDS011;70343;51.530;5.050;2024-03-08T01:21:32;24.85;;;12.05;;
80891;SDS011;70343;51.530;5.050;2024-03-08T01:23:58;28.50;;;12.75;;
80891;SDS011;70343;51.530;5.050;2024-03-08T01:26:23;22.35;;;11.82;;
80891;SDS011;70343;51.530;5.050;2024-03-08T01:28:49;26.02;;;13.85;;
80891;SDS011;70343;51.530;5.050;2024-03-08T01:31:15;27.58;;;13.77;;
80891;SDS011;70343;51.530;5.050;2024-03-08T01:33:41;26.58;;;12.07;;
80891;SDS011;70343;51.530;5.050;2024-03-08T01:36:07;29.63;;;12.68;;
80891;SDS011;70343;51.530;5.050;2024-03-08T01:38:32;25.77;;;12.63;;
80891;SDS011;70343;51.530;5.050;2024-03-08T01:40:58;21.35;;;11.00;;
80891;SDS011;70343;51.530;5.050;2024-03-08T01:43:28;24.33;;;14.15;;
80891;SDS011;70343;51.530;5.050;2024-03-08T01:45:57;24.13;;;12.55;;
80891;SDS011;70343;51.530;5.050;2024-03-08T01:48:30;24.63;;;12.18;;
80891;SDS011;70343;51.530;5.050;2024-03-08T01:50:56;24.35;;;12.00;;
80891;SDS011;70343;51.530;5.050;2024-03-08T01:53:23;25.60;;;10.48;;
80891;SDS011;70343;51.530;5.050;2024-03-08T01:55:50;21.45;;;12.35;;
80891;SDS011;70343;51.530;5.050;2024-03-08T01:58:19;25.33;;;13.60;;
80891;SDS011;70343;51.530;5.050;2024-03-08T02:00:47;22.33;;;11.07;;
80891;SDS011;70343;51.530;5.050;2024-03-08T02:03:17;24.92;;;11.63;;
80891;SDS011;70343;51.530;5.050;2024-03-08T02:05:42;27.65;;;11.45;;
80891;SDS011;70343;51.530;5.050;2024-03-08T02:08:10;27.40;;;14.68;;
80891;SDS011;70343;51.530;5.050;2024-03-08T02:10:43;23.00;;;13.13;;
80891;SDS011;70343;51.530;5.050;2024-03-08T02:13:09;24.48;;;13.13;;
80891;SDS011;70343;51.530;5.050;2024-03-08T02:18:21;23.48;;;11.10;;
80891;SDS011;70343;51.530;5.050;2024-03-08T02:20:57;27.38;;;14.70;;
80891;SDS011;70343;51.530;5.050;2024-03-08T02:23:26;20.95;;;11.55;;
80891;SDS011;70343;51.530;5.050;2024-03-08T02:25:52;23.38;;;10.75;;
80891;SDS011;70343;51.530;5.050;2024-03-08T02:28:18;21.77;;;12.30;;
80891;SDS011;70343;51.530;5.050;2024-03-08T02:30:45;20.38;;;10.82;;
80891;SDS011;70343;51.530;5.050;2024-03-08T02:33:19;25.10;;;12.75;;
80891;SDS011;70343;51.530;5.050;2024-03-08T02:35:45;22.98;;;12.30;;
80891;SDS011;70343;51.530;5.050;2024-03-08T02:38:12;27.48;;;12.63;;
80891;SDS011;70343;51.530;5.050;2024-03-08T02:40:42;17.55;;;9.48;;
80891;SDS011;70343;51.530;5.050;2024-03-08T02:43:08;23.45;;;12.32;;
80891;SDS011;70343;51.530;5.050;2024-03-08T02:45:34;21.95;;;12.05;;
80891;SDS011;70343;51.530;5.050;2024-03-08T02:48:00;20.95;;;12.10;;
80891;SDS011;70343;51.530;5.050;2024-03-08T02:50:26;18.90;;;9.85;;
80891;SDS011;70343;51.530;5.050;2024-03-08T02:52:51;23.50;;;12.48;;
80891;SDS011;70343;51.530;5.050;2024-03-08T02:55:17;23.23;;;11.13;;
80891;SDS011;70343;51.530;5.050;2024-03-08T02:57:43;27.55;;;13.77;;
80891;SDS011;70343;51.530;5.050;2024-03-08T03:00:09;29.85;;;13.55;;
80891;SDS011;70343;51.530;5.050;2024-03-08T03:02:35;27.27;;;12.82;;
80891;SDS011;70343;51.530;5.050;2024-03-08T03:05:02;23.70;;;15.85;;
80891;SDS011;70343;51.530;5.050;2024-03-08T03:07:31;28.02;;;15.07;;
80891;SDS011;70343;51.530;5.050;2024-03-08T03:09:58;22.30;;;12.85;;
80891;SDS011;70343;51.530;5.050;2024-03-08T03:12:26;23.15;;;12.25;;
80891;SDS011;70343;51.530;5.050;2024-03-08T03:14:52;18.83;;;10.43;;
80891;SDS011;70343;51.530;5.050;2024-03-08T03:17:18;18.92;;;11.65;;
80891;SDS011;70343;51.530;5.050;2024-03-08T03:19:45;24.27;;;12.25;;
80891;SDS011;70343;51.530;5.050;2024-03-08T03:22:12;19.45;;;10.48;;
80891;SDS011;70343;51.530;5.050;2024-03-08T03:24:38;27.83;;;14.02;;
80891;SDS011;70343;51.530;5.050;2024-03-08T03:27:03;20.33;;;10.80;;
80891;SDS011;70343;51.530;5.050;2024-03-08T03:29:42;27.30;;;12.88;;
80891;SDS011;70343;51.530;5.050;2024-03-08T03:32:12;20.85;;;13.00;;
80891;SDS011;70343;51.530;5.050;2024-03-08T03:34:38;24.30;;;13.50;;
80891;SDS011;70343;51.530;5.050;2024-03-08T03:37:05;23.08;;;12.20;;
80891;SDS011;70343;51.530;5.050;2024-03-08T03:39:37;20.08;;;10.60;;
80891;SDS011;70343;51.530;5.050;2024-03-08T03:42:22;21.08;;;11.38;;
80891;SDS011;70343;51.530;5.050;2024-03-08T03:44:49;27.48;;;14.32;;
80891;SDS011;70343;51.530;5.050;2024-03-08T03:47:15;25.70;;;13.57;;
80891;SDS011;70343;51.530;5.050;2024-03-08T03:49:41;23.20;;;12.48;;
80891;SDS011;70343;51.530;5.050;2024-03-08T03:52:07;30.13;;;13.43;;
80891;SDS011;70343;51.530;5.050;2024-03-08T03:54:34;19.85;;;10.93;;
80891;SDS011;70343;51.530;5.050;2024-03-08T03:56:59;22.52;;;11.35;;
80891;SDS011;70343;51.530;5.050;2024-03-08T03:59:25;22.30;;;10.88;;
80891;SDS011;70343;51.530;5.050;2024-03-08T04:01:52;24.55;;;13.45;;
80891;SDS011;70343;51.530;5.050;2024-03-08T04:04:18;26.90;;;13.18;;
80891;SDS011;70343;51.530;5.050;2024-03-08T04:06:44;20.88;;;11.45;;
80891;SDS011;70343;51.530;5.050;2024-03-08T04:09:10;23.45;;;13.05;;
80891;SDS011;70343;51.530;5.050;2024-03-08T04:11:36;19.65;;;10.73;;
80891;SDS011;70343;51.530;5.050;2024-03-08T04:14:01;25.35;;;13.90;;
80891;SDS011;70343;51.530;5.050;2024-03-08T04:16:27;18.08;;;9.48;;
80891;SDS011;70343;51.530;5.050;2024-03-08T04:18:53;21.73;;;12.23;;
80891;SDS011;70343;51.530;5.050;2024-03-08T04:21:18;22.40;;;11.85;;
80891;SDS011;70343;51.530;5.050;2024-03-08T04:23:44;25.67;;;12.52;;
80891;SDS011;70343;51.530;5.050;2024-03-08T04:26:10;19.60;;;11.45;;
80891;SDS011;70343;51.530;5.050;2024-03-08T04:28:36;25.10;;;14.15;;
80891;SDS011;70343;51.530;5.050;2024-03-08T04:31:03;28.05;;;14.38;;
80891;SDS011;70343;51.530;5.050;2024-03-08T04:33:29;23.30;;;12.32;;
80891;SDS011;70343;51.530;5.050;2024-03-08T04:35:54;22.85;;;11.75;;
80891;SDS011;70343;51.530;5.050;2024-03-08T04:38:20;21.98;;;12.40;;
80891;SDS011;70343;51.530;5.050;2024-03-08T04:40:46;24.80;;;13.90;;
80891;SDS011;70343;51.530;5.050;2024-03-08T04:43:12;23.75;;;13.30;;
80891;SDS011;70343;51.530;5.050;2024-03-08T04:45:39;21.83;;;12.07;;
80891;SDS011;70343;51.530;5.050;2024-03-08T04:48:05;21.35;;;10.48;;
80891;SDS011;70343;51.530;5.050;2024-03-08T04:50:30;22.77;;;11.75;;
80891;SDS011;70343;51.530;5.050;2024-03-08T04:52:56;28.60;;;13.20;;
80891;SDS011;70343;51.530;5.050;2024-03-08T04:55:21;31.30;;;14.65;;
80891;SDS011;70343;51.530;5.050;2024-03-08T04:57:48;24.20;;;13.70;;
80891;SDS011;70343;51.530;5.050;2024-03-08T05:00:14;23.02;;;12.10;;
80891;SDS011;70343;51.530;5.050;2024-03-08T05:02:40;30.10;;;16.05;;
80891;SDS011;70343;51.530;5.050;2024-03-08T05:05:06;32.00;;;15.35;;
80891;SDS011;70343;51.530;5.050;2024-03-08T05:07:34;23.65;;;11.73;;
80891;SDS011;70343;51.530;5.050;2024-03-08T05:10:00;25.80;;;12.48;;
80891;SDS011;70343;51.530;5.050;2024-03-08T05:12:27;23.70;;;11.50;;
80891;SDS011;70343;51.530;5.050;2024-03-08T05:14:53;18.15;;;9.30;;
80891;SDS011;70343;51.530;5.050;2024-03-08T05:17:19;24.23;;;12.02;;
80891;SDS011;70343;51.530;5.050;2024-03-08T05:19:44;28.15;;;11.82;;
80891;SDS011;70343;51.530;5.050;2024-03-08T05:22:10;22.70;;;12.43;;
80891;SDS011;70343;51.530;5.050;2024-03-08T05:24:36;30.90;;;15.43;;
80891;SDS011;70343;51.530;5.050;2024-03-08T05:27:01;17.75;;;9.82;;
80891;SDS011;70343;51.530;5.050;2024-03-08T05:29:28;23.33;;;12.88;;
80891;SDS011;70343;51.530;5.050;2024-03-08T05:31:54;22.33;;;13.20;;
80891;SDS011;70343;51.530;5.050;2024-03-08T05:34:21;22.25;;;10.85;;
80891;SDS011;70343;51.530;5.050;2024-03-08T05:36:48;27.88;;;14.13;;
80891;SDS011;70343;51.530;5.050;2024-03-08T05:39:19;25.35;;;13.90;;
80891;SDS011;70343;51.530;5.050;2024-03-08T05:41:47;26.73;;;15.32;;
80891;SDS011;70343;51.530;5.050;2024-03-08T05:44:13;18.95;;;10.52;;
80891;SDS011;70343;51.530;5.050;2024-03-08T05:46:39;26.13;;;12.30;;
80891;SDS011;70343;51.530;5.050;2024-03-08T05:49:05;24.02;;;13.32;;
80891;SDS011;70343;51.530;5.050;2024-03-08T05:51:32;29.73;;;15.00;;
80891;SDS011;70343;51.530;5.050;2024-03-08T05:54:02;27.45;;;14.10;;
80891;SDS011;70343;51.530;5.050;2024-03-08T05:56:31;23.65;;;13.05;;
80891;SDS011;70343;51.530;5.050;2024-03-08T05:58:57;25.40;;;13.63;;
80891;SDS011;70343;51.530;5.050;2024-03-08T06:01:24;21.08;;;11.60;;
80891;SDS011;70343;51.530;5.050;2024-03-08T06:03:50;24.00;;;13.40;;
80891;SDS011;70343;51.530;5.050;2024-03-08T06:06:15;28.27;;;15.50;;
80891;SDS011;70343;51.530;5.050;2024-03-08T06:08:43;24.60;;;12.75;;
80891;SDS011;70343;51.530;5.050;2024-03-08T06:11:09;34.45;;;17.50;;
80891;SDS011;70343;51.530;5.050;2024-03-08T06:13:35;25.45;;;14.52;;
80891;SDS011;70343;51.530;5.050;2024-03-08T06:16:01;27.58;;;13.68;;
80891;SDS011;70343;51.530;5.050;2024-03-08T06:18:32;30.35;;;13.73;;
80891;SDS011;70343;51.530;5.050;2024-03-08T06:20:57;28.10;;;14.63;;
80891;SDS011;70343;51.530;5.050;2024-03-08T06:23:23;23.55;;;11.15;;
80891;SDS011;70343;51.530;5.050;2024-03-08T06:25:49;25.50;;;15.25;;
80891;SDS011;70343;51.530;5.050;2024-03-08T06:28:14;22.88;;;11.95;;
80891;SDS011;70343;51.530;5.050;2024-03-08T06:30:40;24.25;;;12.95;;
80891;SDS011;70343;51.530;5.050;2024-03-08T06:33:06;17.58;;;11.43;;
80891;SDS011;70343;51.530;5.050;2024-03-08T06:35:32;32.63;;;16.85;;
80891;SDS011;70343;51.530;5.050;2024-03-08T06:38:01;26.05;;;14.38;;
80891;SDS011;70343;51.530;5.050;2024-03-08T06:40:26;25.63;;;14.60;;
80891;SDS011;70343;51.530;5.050;2024-03-08T06:42:52;29.70;;;14.90;;
80891;SDS011;70343;51.530;5.050;2024-03-08T06:45:17;29.17;;;16.90;;
80891;SDS011;70343;51.530;5.050;2024-03-08T06:47:46;30.08;;;17.48;;
80891;SDS011;70343;51.530;5.050;2024-03-08T06:50:12;20.27;;;12.18;;
80891;SDS011;70343;51.530;5.050;2024-03-08T06:52:38;25.17;;;13.70;;
80891;SDS011;70343;51.530;5.050;2024-03-08T06:55:04;28.55;;;14.82;;
80891;SDS011;70343;51.530;5.050;2024-03-08T06:57:30;30.35;;;15.23;;
80891;SDS011;70343;51.530;5.050;2024-03-08T06:59:57;25.55;;;15.25;;
80891;SDS011;70343;51.530;5.050;2024-03-08T07:02:23;35.22;;;13.40;;
80891;SDS011;70343;51.530;5.050;2024-03-08T07:04:51;28.05;;;13.50;;
80891;SDS011;70343;51.530;5.050;2024-03-08T07:07:18;23.38;;;12.82;;
80891;SDS011;70343;51.530;5.050;2024-03-08T07:09:45;24.27;;;13.18;;
80891;SDS011;70343;51.530;5.050;2024-03-08T07:12:11;18.80;;;10.40;;
80891;SDS011;70343;51.530;5.050;2024-03-08T07:14:38;24.38;;;13.48;;
80891;SDS011;70343;51.530;5.050;2024-03-08T07:17:07;21.45;;;12.43;;
80891;SDS011;70343;51.530;5.050;2024-03-08T07:19:36;26.85;;;14.50;;
80891;SDS011;70343;51.530;5.050;2024-03-08T07:22:03;18.13;;;9.93;;
80891;SDS011;70343;51.530;5.050;2024-03-08T07:24:30;19.67;;;10.75;;
80891;SDS011;70343;51.530;5.050;2024-03-08T07:26:58;25.50;;;11.73;;
80891;SDS011;70343;51.530;5.050;2024-03-08T07:29:24;30.00;;;14.63;;
80891;SDS011;70343;51.530;5.050;2024-03-08T07:31:50;25.60;;;14.05;;
80891;SDS011;70343;51.530;5.050;2024-03-08T07:34:21;29.02;;;16.35;;
80891;SDS011;70343;51.530;5.050;2024-03-08T07:36:47;26.55;;;13.15;;
80891;SDS011;70343;51.530;5.050;2024-03-08T07:39:12;28.38;;;14.00;;
80891;SDS011;70343;51.530;5.050;2024-03-08T07:41:38;25.48;;;13.13;;
80891;SDS011;70343;51.530;5.050;2024-03-08T07:44:07;27.02;;;14.32;;
80891;SDS011;70343;51.530;5.050;2024-03-08T07:46:33;26.55;;;14.10;;
80891;SDS011;70343;51.530;5.050;2024-03-08T07:49:02;26.52;;;10.98;;
80891;SDS011;70343;51.530;5.050;2024-03-08T07:51:28;26.65;;;13.98;;
80891;SDS011;70343;51.530;5.050;2024-03-08T07:53:54;27.05;;;14.15;;
80891;SDS011;70343;51.530;5.050;2024-03-08T07:56:20;28.63;;;13.65;;
80891;SDS011;70343;51.530;5.050;2024-03-08T07:58:47;27.92;;;14.00;;
80891;SDS011;70343;51.530;5.050;2024-03-08T08:01:16;24.52;;;12.07;;
80891;SDS011;70343;51.530;5.050;2024-03-08T08:03:43;25.00;;;11.90;;
80891;SDS011;70343;51.530;5.050;2024-03-08T08:06:08;23.55;;;12.30;;
80891;SDS011;70343;51.530;5.050;2024-03-08T08:08:35;22.67;;;12.32;;
80891;SDS011;70343;51.530;5.050;2024-03-08T08:11:00;26.90;;;15.40;;
80891;SDS011;70343;51.530;5.050;2024-03-08T08:13:27;20.42;;;12.07;;
80891;SDS011;70343;51.530;5.050;2024-03-08T08:15:57;26.05;;;14.77;;
80891;SDS011;70343;51.530;5.050;2024-03-08T08:18:23;23.92;;;14.52;;
80891;SDS011;70343;51.530;5.050;2024-03-08T08:20:50;18.27;;;9.10;;
80891;SDS011;70343;51.530;5.050;2024-03-08T08:23:17;23.00;;;13.40;;
80891;SDS011;70343;51.530;5.050;2024-03-08T08:25:45;26.65;;;14.32;;
80891;SDS011;70343;51.530;5.050;2024-03-08T08:28:11;22.92;;;12.27;;
80891;SDS011;70343;51.530;5.050;2024-03-08T08:30:37;23.17;;;14.40;;
80891;SDS011;70343;51.530;5.050;2024-03-08T08:33:03;23.38;;;14.55;;
80891;SDS011;70343;51.530;5.050;2024-03-08T08:35:30;26.38;;;14.13;;
80891;SDS011;70343;51.530;5.050;2024-03-08T08:37:57;23.27;;;11.82;;
80891;SDS011;70343;51.530;5.050;2024-03-08T08:40:24;19.00;;;11.40;;
80891;SDS011;70343;51.530;5.050;2024-03-08T08:42:51;26.13;;;12.90;;
80891;SDS011;70343;51.530;5.050;2024-03-08T08:45:18;21.85;;;12.85;;
80891;SDS011;70343;51.530;5.050;2024-03-08T08:47:44;21.60;;;11.57;;
80891;SDS011;70343;51.530;5.050;2024-03-08T08:50:10;26.80;;;12.73;;
80891;SDS011;70343;51.530;5.050;2024-03-08T08:55:05;20.73;;;11.90;;
80891;SDS011;70343;51.530;5.050;2024-03-08T08:57:31;24.67;;;13.95;;
80891;SDS011;70343;51.530;5.050;2024-03-08T08:59:58;22.83;;;13.13;;
80891;SDS011;70343;51.530;5.050;2024-03-08T09:02:25;25.75;;;15.52;;
80891;SDS011;70343;51.530;5.050;2024-03-08T09:04:51;23.77;;;12.13;;
80891;SDS011;70343;51.530;5.050;2024-03-08T09:07:17;18.33;;;11.07;;
80891;SDS011;70343;51.530;5.050;2024-03-08T09:09:44;24.05;;;10.60;;
80891;SDS011;70343;51.530;5.050;2024-03-08T09:12:10;17.55;;;10.27;;
80891;SDS011;70343;51.530;5.050;2024-03-08T09:14:41;24.85;;;13.93;;
80891;SDS011;70343;51.530;5.050;2024-03-08T09:17:07;19.27;;;11.50;;
80891;SDS011;70343;51.530;5.050;2024-03-08T09:19:34;18.75;;;12.40;;
80891;SDS011;70343;51.530;5.050;2024-03-08T09:22:02;24.15;;;13.07;;
80891;SDS011;70343;51.530;5.050;2024-03-08T09:24:29;24.55;;;13.77;;
80891;SDS011;70343;51.530;5.050;2024-03-08T09:26:56;20.38;;;14.38;;
80891;SDS011;70343;51.530;5.050;2024-03-08T09:29:24;20.88;;;13.00;;
80891;SDS011;70343;51.530;5.050;2024-03-08T09:31:49;22.92;;;12.25;;
80891;SDS011;70343;51.530;5.050;2024-03-08T09:34:15;18.25;;;10.15;;
80891;SDS011;70343;51.530;5.050;2024-03-08T09:36:41;17.40;;;10.45;;
80891;SDS011;70343;51.530;5.050;2024-03-08T09:39:07;19.95;;;12.50;;
80891;SDS011;70343;51.530;5.050;2024-03-08T09:41:33;15.93;;;9.70;;
80891;SDS011;70343;51.530;5.050;2024-03-08T09:43:59;22.45;;;10.93;;
80891;SDS011;70343;51.530;5.050;2024-03-08T09:46:26;21.08;;;12.77;;
80891;SDS011;70343;51.530;5.050;2024-03-08T09:48:55;23.90;;;14.07;;
80891;SDS011;70343;51.530;5.050;2024-03-08T09:51:21;20.48;;;12.35;;
80891;SDS011;70343;51.530;5.050;2024-03-08T09:53:53;21.67;;;11.57;;
80891;SDS011;70343;51.530;5.050;2024-03-08T09:56:22;21.98;;;13.57;;
80891;SDS011;70343;51.530;5.050;2024-03-08T09:58:49;17.13;;;10.93;;
80891;SDS011;70343;51.530;5.050;2024-03-08T10:01:43;18.58;;;11.18;;
80891;SDS011;70343;51.530;5.050;2024-03-08T10:04:09;16.75;;;9.32;;
80891;SDS011;70343;51.530;5.050;2024-03-08T10:06:35;24.30;;;14.52;;
80891;SDS011;70343;51.530;5.050;2024-03-08T10:09:01;21.95;;;13.10;;
80891;SDS011;70343;51.530;5.050;2024-03-08T10:11:27;16.13;;;10.73;;
80891;SDS011;70343;51.530;5.050;2024-03-08T10:13:54;18.02;;;11.48;;
80891;SDS011;70343;51.530;5.050;2024-03-08T10:16:19;15.32;;;9.73;;
80891;SDS011;70343;51.530;5.050;2024-03-08T10:18:45;19.02;;;11.27;;
80891;SDS011;70343;51.530;5.050;2024-03-08T10:21:11;20.58;;;11.75;;
80891;SDS011;70343;51.530;5.050;2024-03-08T10:23:38;17.83;;;10.40;;
80891;SDS011;70343;51.530;5.050;2024-03-08T10:28:40;20.77;;;11.73;;
80891;SDS011;70343;51.530;5.050;2024-03-08T10:31:13;17.45;;;11.00;;
80891;SDS011;70343;51.530;5.050;2024-03-08T10:33:40;22.13;;;10.57;;
80891;SDS011;70343;51.530;5.050;2024-03-08T10:36:10;19.42;;;11.57;;
80891;SDS011;70343;51.530;5.050;2024-03-08T10:38:37;12.10;;;8.10;;
80891;SDS011;70343;51.530;5.050;2024-03-08T10:41:07;17.40;;;10.73;;
80891;SDS011;70343;51.530;5.050;2024-03-08T10:52:50;18.33;;;10.95;;
80891;SDS011;70343;51.530;5.050;2024-03-08T10:55:19;16.23;;;10.30;;
80891;SDS011;70343;51.530;5.050;2024-03-08T10:57:47;18.80;;;9.88;;
80891;SDS011;70343;51.530;5.050;2024-03-08T11:00:13;17.60;;;8.65;;
80891;SDS011;70343;51.530;5.050;2024-03-08T11:02:45;17.95;;;10.40;;
80891;SDS011;70343;51.530;5.050;2024-03-08T11:05:15;17.40;;;10.38;;
80891;SDS011;70343;51.530;5.050;2024-03-08T11:08:16;16.05;;;8.57;;
80891;SDS011;70343;51.530;5.050;2024-03-08T11:10:49;19.60;;;9.57;;
80891;SDS011;70343;51.530;5.050;2024-03-08T11:13:36;14.05;;;9.35;;
80891;SDS011;70343;51.530;5.050;2024-03-08T11:16:51;22.48;;;11.30;;
80891;SDS011;70343;51.530;5.050;2024-03-08T11:21:30;13.25;;;8.60;;
80891;SDS011;70343;51.530;5.050;2024-03-08T11:24:07;15.73;;;10.30;;
80891;SDS011;70343;51.530;5.050;2024-03-08T11:26:38;17.02;;;11.15;;
80891;SDS011;70343;51.530;5.050;2024-03-08T11:31:52;18.38;;;8.23;;
80891;SDS011;70343;51.530;5.050;2024-03-08T11:34:41;16.13;;;9.30;;
80891;SDS011;70343;51.530;5.050;2024-03-08T11:37:12;15.73;;;8.43;;
80891;SDS011;70343;51.530;5.050;2024-03-08T11:39:39;13.43;;;7.85;;
80891;SDS011;70343;51.530;5.050;2024-03-08T11:42:06;10.68;;;7.63;;
80891;SDS011;70343;51.530;5.050;2024-03-08T11:44:32;12.75;;;8.38;;
80891;SDS011;70343;51.530;5.050;2024-03-08T11:46:57;11.27;;;7.50;;
80891;SDS011;70343;51.530;5.050;2024-03-08T11:49:23;12.73;;;7.53;;
80891;SDS011;70343;51.530;5.050;2024-03-08T11:51:52;12.60;;;8.10;;
80891;SDS011;70343;51.530;5.050;2024-03-08T11:54:18;8.75;;;6.13;;
80891;SDS011;70343;51.530;5.050;2024-03-08T11:56:45;9.25;;;6.53;;
80891;SDS011;70343;51.530;5.050;2024-03-08T11:59:13;13.02;;;7.07;;
80891;SDS011;70343;51.530;5.050;2024-03-08T12:01:39;11.13;;;7.10;;
80891;SDS011;70343;51.530;5.050;2024-03-08T12:04:05;12.07;;;7.35;;
80891;SDS011;70343;51.530;5.050;2024-03-08T12:06:37;13.48;;;7.10;;
80891;SDS011;70343;51.530;5.050;2024-03-08T12:09:11;12.05;;;8.43;;
80891;SDS011;70343;51.530;5.050;2024-03-08T12:11:38;13.13;;;6.97;;
80891;SDS011;70343;51.530;5.050;2024-03-08T12:14:04;15.82;;;8.05;;
80891;SDS011;70343;51.530;5.050;2024-03-08T12:16:31;9.60;;;6.65;;
80891;SDS011;70343;51.530;5.050;2024-03-08T12:18:57;14.07;;;7.50;;
80891;SDS011;70343;51.530;5.050;2024-03-08T12:21:23;13.38;;;7.38;;
80891;SDS011;70343;51.530;5.050;2024-03-08T12:26:37;19.98;;;8.20;;
80891;SDS011;70343;51.530;5.050;2024-03-08T12:31:51;12.60;;;6.68;;
80891;SDS011;70343;51.530;5.050;2024-03-08T12:34:20;11.98;;;6.95;;
80891;SDS011;70343;51.530;5.050;2024-03-08T12:36:50;14.52;;;7.55;;
80891;SDS011;70343;51.530;5.050;2024-03-08T12:39:19;12.23;;;7.38;;
80891;SDS011;70343;51.530;5.050;2024-03-08T12:41:55;16.63;;;9.35;;
80891;SDS011;70343;51.530;5.050;2024-03-08T12:44:24;17.15;;;9.32;;
80891;SDS011;70343;51.530;5.050;2024-03-08T12:46:51;19.08;;;9.07;;
80891;SDS011;70343;51.530;5.050;2024-03-08T12:49:19;16.00;;;9.70;;
80891;SDS011;70343;51.530;5.050;2024-03-08T12:51:47;14.75;;;8.45;;
80891;SDS011;70343;51.530;5.050;2024-03-08T12:54:14;16.08;;;8.13;;
80891;SDS011;70343;51.530;5.050;2024-03-08T12:56:40;12.13;;;8.05;;
80891;SDS011;70343;51.530;5.050;2024-03-08T12:59:08;9.57;;;6.35;;
80891;SDS011;70343;51.530;5.050;2024-03-08T13:01:35;12.13;;;8.32;;
80891;SDS011;70343;51.530;5.050;2024-03-08T13:04:05;14.30;;;8.30;;
80891;SDS011;70343;51.530;5.050;2024-03-08T13:06:32;11.98;;;7.40;;
80891;SDS011;70343;51.530;5.050;2024-03-08T13:08:58;12.88;;;8.30;;
80891;SDS011;70343;51.530;5.050;2024-03-08T13:11:26;11.13;;;7.30;;
80891;SDS011;70343;51.530;5.050;2024-03-08T13:13:52;15.00;;;8.32;;
80891;SDS011;70343;51.530;5.050;2024-03-08T13:16:20;13.27;;;8.10;;
80891;SDS011;70343;51.530;5.050;2024-03-08T13:18:46;11.48;;;7.28;;
80891;SDS011;70343;51.530;5.050;2024-03-08T13:23:43;16.92;;;5.95;;
80891;SDS011;70343;51.530;5.050;2024-03-08T13:26:14;16.75;;;8.65;;
80891;SDS011;70343;51.530;5.050;2024-03-08T13:28:41;14.02;;;8.32;;
80891;SDS011;70343;51.530;5.050;2024-03-08T13:31:22;12.85;;;8.73;;
80891;SDS011;70343;51.530;5.050;2024-03-08T13:36:14;11.90;;;6.63;;
80891;SDS011;70343;51.530;5.050;2024-03-08T13:38:43;9.70;;;6.18;;
80891;SDS011;70343;51.530;5.050;2024-03-08T13:41:12;12.82;;;7.53;;
80891;SDS011;70343;51.530;5.050;2024-03-08T13:43:48;12.57;;;6.60;;
80891;SDS011;70343;51.530;5.050;2024-03-08T13:46:18;17.05;;;7.82;;
80891;SDS011;70343;51.530;5.050;2024-03-08T13:48:44;13.13;;;8.07;;
80891;SDS011;70343;51.530;5.050;2024-03-08T13:51:09;11.95;;;7.60;;
80891;SDS011;70343;51.530;5.050;2024-03-08T13:53:37;14.13;;;8.40;;
80891;SDS011;70343;51.530;5.050;2024-03-08T13:56:03;10.75;;;6.90;;
80891;SDS011;70343;51.530;5.050;2024-03-08T13:58:29;9.68;;;7.05;;
80891;SDS011;70343;51.530;5.050;2024-03-08T14:00:54;13.25;;;6.75;;
80891;SDS011;70343;51.530;5.050;2024-03-08T14:03:20;11.52;;;7.80;;
80891;SDS011;70343;51.530;5.050;2024-03-08T14:05:46;19.52;;;8.65;;
80891;SDS011;70343;51.530;5.050;2024-03-08T14:08:12;10.23;;;6.78;;
80891;SDS011;70343;51.530;5.050;2024-03-08T14:10:39;13.15;;;7.13;;
80891;SDS011;70343;51.530;5.050;2024-03-08T14:13:04;10.40;;;7.05;;
80891;SDS011;70343;51.530;5.050;2024-03-08T14:15:32;10.93;;;7.47;;
80891;SDS011;70343;51.530;5.050;2024-03-08T14:17:58;12.75;;;7.60;;
80891;SDS011;70343;51.530;5.050;2024-03-08T14:20:23;9.80;;;6.53;;
80891;SDS011;70343;51.530;5.050;2024-03-08T14:22:55;13.25;;;7.55;;
80891;SDS011;70343;51.530;5.050;2024-03-08T14:25:21;13.40;;;8.55;;
80891;SDS011;70343;51.530;5.050;2024-03-08T14:27:48;12.90;;;7.78;;
80891;SDS011;70343;51.530;5.050;2024-03-08T14:32:59;12.82;;;7.78;;
80891;SDS011;70343;51.530;5.050;2024-03-08T14:35:25;12.57;;;8.70;;
80891;SDS011;70343;51.530;5.050;2024-03-08T14:37:52;13.30;;;7.20;;
80891;SDS011;70343;51.530;5.050;2024-03-08T14:40:22;9.90;;;6.95;;
80891;SDS011;70343;51.530;5.050;2024-03-08T14:42:49;11.70;;;6.82;;
80891;SDS011;70343;51.530;5.050;2024-03-08T14:45:15;10.93;;;7.15;;
80891;SDS011;70343;51.530;5.050;2024-03-08T14:47:42;10.20;;;6.53;;
80891;SDS011;70343;51.530;5.050;2024-03-08T14:50:08;12.52;;;6.63;;
80891;SDS011;70343;51.530;5.050;2024-03-08T14:52:35;12.13;;;7.80;;
80891;SDS011;70343;51.530;5.050;2024-03-08T14:55:00;12.20;;;6.88;;
80891;SDS011;70343;51.530;5.050;2024-03-08T14:57:31;16.33;;;8.02;;
80891;SDS011;70343;51.530;5.050;2024-03-08T14:59:58;14.80;;;7.43;;
80891;SDS011;70343;51.530;5.050;2024-03-08T15:02:31;11.10;;;7.45;;